Terminal Aerodrome Forecast
Issued by NWS

Home | Current Version | Previous Version | Text Only | Print | Product List | Glossary On
Versions: 1 2 3 4 5 6 7 8 9 10 11 12 13
000
FTUS44 KEPZ 261151
TAFLRU
TAF
KLRU 261151Z 2612/2712 05008KT P6SM BKN120 BKN250
     FM262100 15009KT P6SM VCTS SCT090CB SCT250
     FM270600 24005KT P6SM BKN120=

USA.gov is the U.S. government's official web portal to all federal, state and local government web resources and services.